8MI4 weather

Howe Airport
Morley, Michigan, United States

Public forecast

Using degrees Fahrenheit for public forecast. Weather courtesy of forecast.io.

METAR (pilot weather report)

Closest report is Roben Hood Airport, 13.9 nm (25.8 km) NNE. Retrieved 2019/07/18 14:36 UTC (16 minutes ago):

KRQB 181436Z AUTO 22005KT 10SM SCT018 BKN034 OVC047 25/22 A2991 RMK AO2 T02500215

TAF (pilot weather forecast)

Closest forecast is Muskegon County Airport, 35.0 nm (64.9 km) SW. Retrieved 2019/07/18 12:42 UTC (2 hours ago):

TAF KMKG 181139Z 1812/1912 16008KT P6SM BKN100 FM181430 19011KT 5SM -SHRA VCTS BKN050CB FM181800 19012G21KT P6SM SCT035 BKN250 FM190400 21012G21KT P6SM VCTS BKN050CB